Terminal Aerodrome Forecast
Issued by NWS

Home | Current Version | Previous Version | Graphics & Text | Print | Product List | Glossary On
Versions: 1 2 3 4 5 6 7 8 9 10 11 12 13 14
559
FTUS43 KBIS 162327
TAFDIK
TAF
KDIK 162327Z 1700/1724 18013KT P6SM SKC
     FM170400 20012G20KT P6SM SKC
     FM171700 27017G25KT 5SM BLSN SKC
     FM172300 27013KT P6SM FEW250=

USA.gov is the U.S. government's official web portal to all federal, state and local government web resources and services.